sensor_id;sensor_type;location;lat;lon;timestamp;P1;durP1;ratioP1;P2;durP2;ratioP2
13731;SDS011;6937;56.096;12.664;2023-02-13T00:00:21;12.95;;;3.35;;
13731;SDS011;6937;56.096;12.664;2023-02-13T00:02:47;8.48;;;2.80;;
13731;SDS011;6937;56.096;12.664;2023-02-13T00:05:13;11.77;;;3.22;;
13731;SDS011;6937;56.096;12.664;2023-02-13T00:07:38;15.05;;;3.55;;
13731;SDS011;6937;56.096;12.664;2023-02-13T00:10:04;11.25;;;3.08;;
13731;SDS011;6937;56.096;12.664;2023-02-13T00:12:30;13.27;;;3.55;;
13731;SDS011;6937;56.096;12.664;2023-02-13T00:14:55;12.38;;;3.60;;
13731;SDS011;6937;56.096;12.664;2023-02-13T00:17:21;12.90;;;3.42;;
13731;SDS011;6937;56.096;12.664;2023-02-13T00:19:46;12.40;;;3.00;;
13731;SDS011;6937;56.096;12.664;2023-02-13T00:22:11;12.88;;;3.30;;
13731;SDS011;6937;56.096;12.664;2023-02-13T00:24:37;14.30;;;3.47;;
13731;SDS011;6937;56.096;12.664;2023-02-13T00:27:02;12.45;;;3.55;;
13731;SDS011;6937;56.096;12.664;2023-02-13T00:29:28;12.18;;;3.22;;
13731;SDS011;6937;56.096;12.664;2023-02-13T00:31:53;11.95;;;3.42;;
13731;SDS011;6937;56.096;12.664;2023-02-13T00:34:18;12.88;;;3.45;;
13731;SDS011;6937;56.096;12.664;2023-02-13T00:36:44;12.23;;;3.28;;
13731;SDS011;6937;56.096;12.664;2023-02-13T00:39:10;13.18;;;3.92;;
13731;SDS011;6937;56.096;12.664;2023-02-13T00:41:36;10.05;;;2.90;;
13731;SDS011;6937;56.096;12.664;2023-02-13T00:44:01;16.23;;;3.72;;
13731;SDS011;6937;56.096;12.664;2023-02-13T00:46:27;14.05;;;3.40;;
13731;SDS011;6937;56.096;12.664;2023-02-13T00:48:52;11.23;;;3.92;;
13731;SDS011;6937;56.096;12.664;2023-02-13T00:51:17;14.85;;;3.67;;
13731;SDS011;6937;56.096;12.664;2023-02-13T00:53:43;12.73;;;4.00;;
13731;SDS011;6937;56.096;12.664;2023-02-13T00:56:08;11.63;;;3.13;;
13731;SDS011;6937;56.096;12.664;2023-02-13T00:58:34;12.80;;;3.67;;
13731;SDS011;6937;56.096;12.664;2023-02-13T01:00:59;13.32;;;3.70;;
13731;SDS011;6937;56.096;12.664;2023-02-13T01:03:25;10.27;;;3.33;;
13731;SDS011;6937;56.096;12.664;2023-02-13T01:05:50;15.35;;;3.53;;
13731;SDS011;6937;56.096;12.664;2023-02-13T01:08:16;18.63;;;3.70;;
13731;SDS011;6937;56.096;12.664;2023-02-13T01:10:44;15.65;;;4.20;;
13731;SDS011;6937;56.096;12.664;2023-02-13T01:13:10;10.75;;;3.15;;
13731;SDS011;6937;56.096;12.664;2023-02-13T01:15:37;14.57;;;3.65;;
13731;SDS011;6937;56.096;12.664;2023-02-13T01:18:04;13.18;;;3.60;;
13731;SDS011;6937;56.096;12.664;2023-02-13T01:20:30;15.60;;;3.95;;
13731;SDS011;6937;56.096;12.664;2023-02-13T01:22:55;13.90;;;3.58;;
13731;SDS011;6937;56.096;12.664;2023-02-13T01:25:22;13.25;;;3.28;;
13731;SDS011;6937;56.096;12.664;2023-02-13T01:27:47;12.60;;;3.20;;
13731;SDS011;6937;56.096;12.664;2023-02-13T01:30:13;13.50;;;3.65;;
13731;SDS011;6937;56.096;12.664;2023-02-13T01:32:40;11.40;;;2.97;;
13731;SDS011;6937;56.096;12.664;2023-02-13T01:35:07;12.43;;;3.47;;
13731;SDS011;6937;56.096;12.664;2023-02-13T01:37:34;12.80;;;3.50;;
13731;SDS011;6937;56.096;12.664;2023-02-13T01:40:00;15.48;;;3.40;;
13731;SDS011;6937;56.096;12.664;2023-02-13T01:42:27;17.63;;;3.70;;
13731;SDS011;6937;56.096;12.664;2023-02-13T01:44:56;12.25;;;2.83;;
13731;SDS011;6937;56.096;12.664;2023-02-13T01:47:27;9.10;;;3.10;;
13731;SDS011;6937;56.096;12.664;2023-02-13T01:50:09;15.75;;;4.20;;
13731;SDS011;6937;56.096;12.664;2023-02-13T01:52:39;9.63;;;2.78;;
13731;SDS011;6937;56.096;12.664;2023-02-13T01:55:10;11.77;;;3.15;;
13731;SDS011;6937;56.096;12.664;2023-02-13T01:57:36;9.95;;;2.90;;
13731;SDS011;6937;56.096;12.664;2023-02-13T02:00:06;13.80;;;3.47;;
13731;SDS011;6937;56.096;12.664;2023-02-13T02:02:36;10.85;;;3.10;;
13731;SDS011;6937;56.096;12.664;2023-02-13T02:05:03;14.38;;;3.58;;
13731;SDS011;6937;56.096;12.664;2023-02-13T02:07:30;12.18;;;3.38;;
13731;SDS011;6937;56.096;12.664;2023-02-13T02:10:07;11.00;;;2.80;;
13731;SDS011;6937;56.096;12.664;2023-02-13T02:12:41;9.75;;;3.30;;
13731;SDS011;6937;56.096;12.664;2023-02-13T02:15:10;11.25;;;3.28;;
13731;SDS011;6937;56.096;12.664;2023-02-13T02:17:36;7.95;;;2.65;;
13731;SDS011;6937;56.096;12.664;2023-02-13T02:39:52;14.25;;;3.00;;
13731;SDS011;6937;56.096;12.664;2023-02-13T02:44:42;9.18;;;3.00;;
13731;SDS011;6937;56.096;12.664;2023-02-13T02:47:32;11.27;;;3.00;;
13731;SDS011;6937;56.096;12.664;2023-02-13T02:53:03;13.02;;;3.13;;
13731;SDS011;6937;56.096;12.664;2023-02-13T02:55:51;12.95;;;3.40;;
13731;SDS011;6937;56.096;12.664;2023-02-13T03:01:11;10.48;;;3.13;;
13731;SDS011;6937;56.096;12.664;2023-02-13T03:03:58;11.38;;;2.92;;
13731;SDS011;6937;56.096;12.664;2023-02-13T03:06:53;8.65;;;2.65;;
13731;SDS011;6937;56.096;12.664;2023-02-13T03:09:28;11.63;;;2.97;;
13731;SDS011;6937;56.096;12.664;2023-02-13T03:12:16;16.67;;;3.00;;
13731;SDS011;6937;56.096;12.664;2023-02-13T03:15:03;10.70;;;2.65;;
13731;SDS011;6937;56.096;12.664;2023-02-13T03:17:29;9.80;;;2.72;;
13731;SDS011;6937;56.096;12.664;2023-02-13T03:23:27;10.27;;;2.67;;
13731;SDS011;6937;56.096;12.664;2023-02-13T03:28:51;14.40;;;3.30;;
13731;SDS011;6937;56.096;12.664;2023-02-13T03:31:54;8.68;;;2.75;;
13731;SDS011;6937;56.096;12.664;2023-02-13T03:34:35;8.50;;;2.78;;
13731;SDS011;6937;56.096;12.664;2023-02-13T03:37:26;7.38;;;2.17;;
13731;SDS011;6937;56.096;12.664;2023-02-13T03:43:46;7.68;;;2.50;;
13731;SDS011;6937;56.096;12.664;2023-02-13T03:46:46;9.73;;;3.10;;
13731;SDS011;6937;56.096;12.664;2023-02-13T03:49:21;11.07;;;2.53;;
13731;SDS011;6937;56.096;12.664;2023-02-13T03:52:23;12.32;;;2.85;;
13731;SDS011;6937;56.096;12.664;2023-02-13T03:54:55;9.10;;;2.30;;
13731;SDS011;6937;56.096;12.664;2023-02-13T03:57:43;10.57;;;2.63;;
13731;SDS011;6937;56.096;12.664;2023-02-13T04:00:29;10.18;;;2.40;;
13731;SDS011;6937;56.096;12.664;2023-02-13T04:05:47;7.28;;;2.50;;
13731;SDS011;6937;56.096;12.664;2023-02-13T04:08:16;7.85;;;2.40;;
13731;SDS011;6937;56.096;12.664;2023-02-13T04:10:45;9.32;;;2.65;;
13731;SDS011;6937;56.096;12.664;2023-02-13T04:13:29;11.30;;;2.72;;
13731;SDS011;6937;56.096;12.664;2023-02-13T04:16:05;7.38;;;2.00;;
13731;SDS011;6937;56.096;12.664;2023-02-13T04:18:35;11.13;;;2.67;;
13731;SDS011;6937;56.096;12.664;2023-02-13T04:21:03;6.32;;;1.90;;
13731;SDS011;6937;56.096;12.664;2023-02-13T04:23:29;7.72;;;1.95;;
13731;SDS011;6937;56.096;12.664;2023-02-13T04:25:55;9.73;;;2.42;;
13731;SDS011;6937;56.096;12.664;2023-02-13T04:28:22;7.45;;;2.20;;
13731;SDS011;6937;56.096;12.664;2023-02-13T04:30:47;6.32;;;2.50;;
13731;SDS011;6937;56.096;12.664;2023-02-13T04:33:14;10.35;;;2.72;;
13731;SDS011;6937;56.096;12.664;2023-02-13T04:35:40;8.82;;;2.63;;
13731;SDS011;6937;56.096;12.664;2023-02-13T04:38:05;12.52;;;3.03;;
13731;SDS011;6937;56.096;12.664;2023-02-13T04:40:31;5.65;;;2.33;;
13731;SDS011;6937;56.096;12.664;2023-02-13T04:42:56;6.63;;;2.22;;
13731;SDS011;6937;56.096;12.664;2023-02-13T04:45:21;7.50;;;2.45;;
13731;SDS011;6937;56.096;12.664;2023-02-13T04:47:50;7.07;;;2.30;;
13731;SDS011;6937;56.096;12.664;2023-02-13T04:50:17;6.93;;;2.20;;
13731;SDS011;6937;56.096;12.664;2023-02-13T04:52:43;8.95;;;2.63;;
13731;SDS011;6937;56.096;12.664;2023-02-13T04:55:08;6.03;;;2.28;;
13731;SDS011;6937;56.096;12.664;2023-02-13T04:57:33;8.68;;;2.47;;
13731;SDS011;6937;56.096;12.664;2023-02-13T04:59:59;7.45;;;2.65;;
13731;SDS011;6937;56.096;12.664;2023-02-13T05:02:24;6.55;;;2.20;;
13731;SDS011;6937;56.096;12.664;2023-02-13T05:04:50;5.75;;;2.20;;
13731;SDS011;6937;56.096;12.664;2023-02-13T05:07:15;6.22;;;2.35;;
13731;SDS011;6937;56.096;12.664;2023-02-13T05:09:40;5.90;;;2.30;;
13731;SDS011;6937;56.096;12.664;2023-02-13T05:12:06;7.72;;;2.45;;
13731;SDS011;6937;56.096;12.664;2023-02-13T05:14:31;7.10;;;2.08;;
13731;SDS011;6937;56.096;12.664;2023-02-13T05:16:56;7.30;;;2.25;;
13731;SDS011;6937;56.096;12.664;2023-02-13T05:19:22;5.30;;;2.30;;
13731;SDS011;6937;56.096;12.664;2023-02-13T05:21:47;8.88;;;2.40;;
13731;SDS011;6937;56.096;12.664;2023-02-13T05:24:31;8.13;;;2.63;;
13731;SDS011;6937;56.096;12.664;2023-02-13T05:26:56;7.47;;;2.50;;
13731;SDS011;6937;56.096;12.664;2023-02-13T05:29:22;8.68;;;2.78;;
13731;SDS011;6937;56.096;12.664;2023-02-13T05:31:48;9.20;;;2.92;;
13731;SDS011;6937;56.096;12.664;2023-02-13T05:34:16;8.45;;;2.15;;
13731;SDS011;6937;56.096;12.664;2023-02-13T05:36:41;9.30;;;3.03;;
13731;SDS011;6937;56.096;12.664;2023-02-13T05:39:07;7.45;;;2.38;;
13731;SDS011;6937;56.096;12.664;2023-02-13T05:41:32;6.70;;;2.53;;
13731;SDS011;6937;56.096;12.664;2023-02-13T05:43:58;6.05;;;2.58;;
13731;SDS011;6937;56.096;12.664;2023-02-13T05:46:23;6.45;;;2.55;;
13731;SDS011;6937;56.096;12.664;2023-02-13T05:48:49;8.10;;;2.83;;
13731;SDS011;6937;56.096;12.664;2023-02-13T05:51:15;8.32;;;2.60;;
13731;SDS011;6937;56.096;12.664;2023-02-13T05:53:41;9.20;;;2.58;;
13731;SDS011;6937;56.096;12.664;2023-02-13T05:56:06;9.43;;;2.47;;
13731;SDS011;6937;56.096;12.664;2023-02-13T05:58:32;5.40;;;2.53;;
13731;SDS011;6937;56.096;12.664;2023-02-13T06:00:58;5.93;;;2.17;;
13731;SDS011;6937;56.096;12.664;2023-02-13T06:03:25;7.25;;;2.80;;
13731;SDS011;6937;56.096;12.664;2023-02-13T06:05:52;5.10;;;2.45;;
13731;SDS011;6937;56.096;12.664;2023-02-13T06:08:18;7.85;;;3.22;;
13731;SDS011;6937;56.096;12.664;2023-02-13T06:10:45;6.75;;;2.75;;
13731;SDS011;6937;56.096;12.664;2023-02-13T06:13:13;6.57;;;2.63;;
13731;SDS011;6937;56.096;12.664;2023-02-13T06:15:39;7.53;;;2.63;;
13731;SDS011;6937;56.096;12.664;2023-02-13T06:18:04;5.90;;;2.28;;
13731;SDS011;6937;56.096;12.664;2023-02-13T06:20:30;7.95;;;2.70;;
13731;SDS011;6937;56.096;12.664;2023-02-13T06:22:55;6.78;;;2.80;;
13731;SDS011;6937;56.096;12.664;2023-02-13T06:25:20;5.80;;;2.70;;
13731;SDS011;6937;56.096;12.664;2023-02-13T06:27:46;8.43;;;2.63;;
13731;SDS011;6937;56.096;12.664;2023-02-13T06:30:12;7.63;;;2.67;;
13731;SDS011;6937;56.096;12.664;2023-02-13T06:32:38;7.30;;;2.35;;
13731;SDS011;6937;56.096;12.664;2023-02-13T06:35:03;5.63;;;2.42;;
13731;SDS011;6937;56.096;12.664;2023-02-13T06:37:29;6.25;;;2.60;;
13731;SDS011;6937;56.096;12.664;2023-02-13T06:39:54;8.25;;;2.50;;
13731;SDS011;6937;56.096;12.664;2023-02-13T06:42:20;5.78;;;2.50;;
13731;SDS011;6937;56.096;12.664;2023-02-13T06:44:45;6.40;;;2.70;;
13731;SDS011;6937;56.096;12.664;2023-02-13T06:47:11;9.00;;;3.58;;
13731;SDS011;6937;56.096;12.664;2023-02-13T06:49:36;7.85;;;2.75;;
13731;SDS011;6937;56.096;12.664;2023-02-13T06:52:02;6.85;;;2.42;;
13731;SDS011;6937;56.096;12.664;2023-02-13T06:54:27;11.30;;;3.47;;
13731;SDS011;6937;56.096;12.664;2023-02-13T06:56:52;8.93;;;3.15;;
13731;SDS011;6937;56.096;12.664;2023-02-13T06:59:18;5.47;;;2.40;;
13731;SDS011;6937;56.096;12.664;2023-02-13T07:01:43;6.40;;;2.47;;
13731;SDS011;6937;56.096;12.664;2023-02-13T07:04:08;7.20;;;2.33;;
13731;SDS011;6937;56.096;12.664;2023-02-13T07:06:34;6.07;;;2.85;;
13731;SDS011;6937;56.096;12.664;2023-02-13T07:09:00;6.07;;;2.60;;
13731;SDS011;6937;56.096;12.664;2023-02-13T07:11:27;8.55;;;3.10;;
13731;SDS011;6937;56.096;12.664;2023-02-13T07:13:52;6.70;;;2.88;;
13731;SDS011;6937;56.096;12.664;2023-02-13T07:16:17;6.97;;;2.80;;
13731;SDS011;6937;56.096;12.664;2023-02-13T07:18:43;8.45;;;3.08;;
13731;SDS011;6937;56.096;12.664;2023-02-13T07:21:08;7.68;;;2.92;;
13731;SDS011;6937;56.096;12.664;2023-02-13T07:23:34;6.97;;;2.90;;
13731;SDS011;6937;56.096;12.664;2023-02-13T07:25:59;7.72;;;2.65;;
13731;SDS011;6937;56.096;12.664;2023-02-13T07:28:26;8.30;;;2.20;;
13731;SDS011;6937;56.096;12.664;2023-02-13T07:30:51;6.28;;;2.47;;
13731;SDS011;6937;56.096;12.664;2023-02-13T07:33:17;4.97;;;2.10;;
13731;SDS011;6937;56.096;12.664;2023-02-13T07:35:50;5.47;;;2.35;;
13731;SDS011;6937;56.096;12.664;2023-02-13T07:38:16;7.43;;;2.40;;
13731;SDS011;6937;56.096;12.664;2023-02-13T07:40:43;7.53;;;2.47;;
13731;SDS011;6937;56.096;12.664;2023-02-13T07:43:08;6.68;;;2.17;;
13731;SDS011;6937;56.096;12.664;2023-02-13T07:45:34;6.57;;;2.40;;
13731;SDS011;6937;56.096;12.664;2023-02-13T07:47:59;8.68;;;2.30;;
13731;SDS011;6937;56.096;12.664;2023-02-13T07:50:25;7.43;;;2.53;;
13731;SDS011;6937;56.096;12.664;2023-02-13T07:52:58;9.48;;;2.50;;
13731;SDS011;6937;56.096;12.664;2023-02-13T07:55:25;7.18;;;2.17;;
13731;SDS011;6937;56.096;12.664;2023-02-13T07:57:51;7.78;;;2.88;;
13731;SDS011;6937;56.096;12.664;2023-02-13T08:00:17;5.65;;;2.25;;
13731;SDS011;6937;56.096;12.664;2023-02-13T08:02:43;6.60;;;2.30;;
13731;SDS011;6937;56.096;12.664;2023-02-13T08:05:09;6.35;;;2.85;;
13731;SDS011;6937;56.096;12.664;2023-02-13T08:07:35;6.18;;;2.00;;
13731;SDS011;6937;56.096;12.664;2023-02-13T08:10:00;8.05;;;2.10;;
13731;SDS011;6937;56.096;12.664;2023-02-13T08:12:44;8.75;;;2.53;;
13731;SDS011;6937;56.096;12.664;2023-02-13T08:15:11;9.10;;;2.72;;
13731;SDS011;6937;56.096;12.664;2023-02-13T08:17:38;8.00;;;2.45;;
13731;SDS011;6937;56.096;12.664;2023-02-13T08:20:04;7.97;;;2.05;;
13731;SDS011;6937;56.096;12.664;2023-02-13T08:22:37;6.72;;;2.15;;
13731;SDS011;6937;56.096;12.664;2023-02-13T08:25:04;4.55;;;2.40;;
13731;SDS011;6937;56.096;12.664;2023-02-13T08:27:30;3.60;;;1.92;;
13731;SDS011;6937;56.096;12.664;2023-02-13T08:29:56;6.72;;;2.17;;
13731;SDS011;6937;56.096;12.664;2023-02-13T08:32:22;4.30;;;1.70;;
13731;SDS011;6937;56.096;12.664;2023-02-13T08:34:48;5.28;;;1.90;;
13731;SDS011;6937;56.096;12.664;2023-02-13T08:37:14;5.35;;;2.00;;
13731;SDS011;6937;56.096;12.664;2023-02-13T08:39:39;8.27;;;2.55;;
13731;SDS011;6937;56.096;12.664;2023-02-13T08:42:04;7.53;;;2.00;;
13731;SDS011;6937;56.096;12.664;2023-02-13T08:44:30;7.55;;;2.40;;
13731;SDS011;6937;56.096;12.664;2023-02-13T08:46:56;7.60;;;2.20;;
13731;SDS011;6937;56.096;12.664;2023-02-13T08:49:21;5.45;;;2.08;;
13731;SDS011;6937;56.096;12.664;2023-02-13T08:51:47;6.93;;;1.98;;
13731;SDS011;6937;56.096;12.664;2023-02-13T08:54:13;8.50;;;2.35;;
13731;SDS011;6937;56.096;12.664;2023-02-13T08:56:38;4.88;;;2.00;;
13731;SDS011;6937;56.096;12.664;2023-02-13T08:59:04;7.63;;;1.90;;
13731;SDS011;6937;56.096;12.664;2023-02-13T09:01:29;6.80;;;1.85;;
13731;SDS011;6937;56.096;12.664;2023-02-13T09:03:55;5.90;;;1.88;;
13731;SDS011;6937;56.096;12.664;2023-02-13T09:06:20;5.75;;;2.30;;
13731;SDS011;6937;56.096;12.664;2023-02-13T09:08:45;5.07;;;1.77;;
13731;SDS011;6937;56.096;12.664;2023-02-13T09:11:11;6.15;;;1.98;;
13731;SDS011;6937;56.096;12.664;2023-02-13T09:13:36;3.10;;;1.60;;
13731;SDS011;6937;56.096;12.664;2023-02-13T09:16:05;5.25;;;1.77;;
13731;SDS011;6937;56.096;12.664;2023-02-13T09:18:32;5.68;;;2.30;;
13731;SDS011;6937;56.096;12.664;2023-02-13T09:20:59;7.13;;;1.73;;
13731;SDS011;6937;56.096;12.664;2023-02-13T09:23:30;4.43;;;1.73;;
13731;SDS011;6937;56.096;12.664;2023-02-13T09:25:59;5.13;;;1.75;;
13731;SDS011;6937;56.096;12.664;2023-02-13T09:28:26;6.43;;;2.05;;
13731;SDS011;6937;56.096;12.664;2023-02-13T09:30:52;5.70;;;2.13;;
13731;SDS011;6937;56.096;12.664;2023-02-13T09:33:17;4.95;;;1.88;;
13731;SDS011;6937;56.096;12.664;2023-02-13T09:35:43;5.78;;;1.90;;
13731;SDS011;6937;56.096;12.664;2023-02-13T09:38:08;5.78;;;1.83;;
13731;SDS011;6937;56.096;12.664;2023-02-13T09:40:34;8.05;;;2.30;;
13731;SDS011;6937;56.096;12.664;2023-02-13T09:46:08;7.22;;;2.17;;
13731;SDS011;6937;56.096;12.664;2023-02-13T09:48:39;6.63;;;2.17;;
13731;SDS011;6937;56.096;12.664;2023-02-13T09:51:09;6.10;;;1.67;;
13731;SDS011;6937;56.096;12.664;2023-02-13T09:53:40;6.70;;;1.90;;
13731;SDS011;6937;56.096;12.664;2023-02-13T09:58:45;6.53;;;2.10;;
13731;SDS011;6937;56.096;12.664;2023-02-13T10:01:55;8.52;;;2.67;;
13731;SDS011;6937;56.096;12.664;2023-02-13T10:04:16;5.03;;;1.80;;
13731;SDS011;6937;56.096;12.664;2023-02-13T10:06:45;5.32;;;1.90;;
13731;SDS011;6937;56.096;12.664;2023-02-13T10:09:32;7.25;;;2.10;;
13731;SDS011;6937;56.096;12.664;2023-02-13T10:14:49;6.60;;;2.00;;
13731;SDS011;6937;56.096;12.664;2023-02-13T10:17:22;6.28;;;2.20;;
13731;SDS011;6937;56.096;12.664;2023-02-13T10:19:55;9.10;;;2.15;;
13731;SDS011;6937;56.096;12.664;2023-02-13T10:22:29;5.72;;;1.90;;
13731;SDS011;6937;56.096;12.664;2023-02-13T10:27:34;5.93;;;2.05;;
13731;SDS011;6937;56.096;12.664;2023-02-13T10:35:44;6.95;;;2.13;;
13731;SDS011;6937;56.096;12.664;2023-02-13T10:38:23;6.47;;;2.08;;
13731;SDS011;6937;56.096;12.664;2023-02-13T10:46:19;6.35;;;2.25;;
13731;SDS011;6937;56.096;12.664;2023-02-13T11:00:20;7.68;;;2.53;;
13731;SDS011;6937;56.096;12.664;2023-02-13T11:02:51;9.93;;;2.30;;
13731;SDS011;6937;56.096;12.664;2023-02-13T11:05:21;9.85;;;2.75;;
13731;SDS011;6937;56.096;12.664;2023-02-13T11:07:49;5.97;;;2.00;;
13731;SDS011;6937;56.096;12.664;2023-02-13T11:10:19;8.68;;;2.40;;
13731;SDS011;6937;56.096;12.664;2023-02-13T11:12:46;6.75;;;2.42;;
13731;SDS011;6937;56.096;12.664;2023-02-13T11:15:26;7.03;;;2.70;;
13731;SDS011;6937;56.096;12.664;2023-02-13T11:17:54;6.47;;;1.90;;
13731;SDS011;6937;56.096;12.664;2023-02-13T11:20:36;7.13;;;2.25;;
13731;SDS011;6937;56.096;12.664;2023-02-13T11:23:14;7.07;;;1.80;;
13731;SDS011;6937;56.096;12.664;2023-02-13T11:28:29;7.88;;;2.22;;
13731;SDS011;6937;56.096;12.664;2023-02-13T11:31:41;7.35;;;2.33;;
13731;SDS011;6937;56.096;12.664;2023-02-13T11:33:47;5.40;;;1.70;;
13731;SDS011;6937;56.096;12.664;2023-02-13T11:36:23;8.18;;;2.15;;
13731;SDS011;6937;56.096;12.664;2023-02-13T11:39:03;5.32;;;1.98;;
13731;SDS011;6937;56.096;12.664;2023-02-13T11:41:35;7.72;;;2.53;;
13731;SDS011;6937;56.096;12.664;2023-02-13T11:44:06;5.60;;;2.00;;
13731;SDS011;6937;56.096;12.664;2023-02-13T11:46:49;7.47;;;2.25;;
13731;SDS011;6937;56.096;12.664;2023-02-13T11:49:18;5.80;;;2.13;;
13731;SDS011;6937;56.096;12.664;2023-02-13T11:51:49;4.95;;;2.13;;
13731;SDS011;6937;56.096;12.664;2023-02-13T11:54:21;4.43;;;1.88;;
13731;SDS011;6937;56.096;12.664;2023-02-13T11:56:50;5.28;;;1.83;;
13731;SDS011;6937;56.096;12.664;2023-02-13T11:59:20;6.30;;;1.98;;
13731;SDS011;6937;56.096;12.664;2023-02-13T12:01:51;6.20;;;2.00;;
13731;SDS011;6937;56.096;12.664;2023-02-13T12:04:27;5.28;;;1.73;;
13731;SDS011;6937;56.096;12.664;2023-02-13T12:06:59;7.05;;;2.25;;
13731;SDS011;6937;56.096;12.664;2023-02-13T12:09:27;9.65;;;2.22;;
13731;SDS011;6937;56.096;12.664;2023-02-13T12:11:59;5.07;;;1.90;;
13731;SDS011;6937;56.096;12.664;2023-02-13T12:14:31;6.68;;;2.03;;
13731;SDS011;6937;56.096;12.664;2023-02-13T12:17:06;4.53;;;1.70;;
13731;SDS011;6937;56.096;12.664;2023-02-13T12:25:11;7.60;;;1.80;;
13731;SDS011;6937;56.096;12.664;2023-02-13T12:35:48;5.15;;;2.10;;
13731;SDS011;6937;56.096;12.664;2023-02-13T12:38:40;5.47;;;1.95;;
13731;SDS011;6937;56.096;12.664;2023-02-13T12:41:20;6.68;;;1.90;;
13731;SDS011;6937;56.096;12.664;2023-02-13T12:44:04;5.47;;;1.80;;
13731;SDS011;6937;56.096;12.664;2023-02-13T12:49:21;4.00;;;1.50;;
13731;SDS011;6937;56.096;12.664;2023-02-13T12:52:06;3.83;;;1.70;;
13731;SDS011;6937;56.096;12.664;2023-02-13T13:00:02;5.28;;;1.83;;
13731;SDS011;6937;56.096;12.664;2023-02-13T13:08:26;4.22;;;1.83;;
13731;SDS011;6937;56.096;12.664;2023-02-13T13:11:08;7.45;;;1.80;;
13731;SDS011;6937;56.096;12.664;2023-02-13T13:21:45;5.05;;;1.55;;
13731;SDS011;6937;56.096;12.664;2023-02-13T13:24:26;5.13;;;1.83;;
13731;SDS011;6937;56.096;12.664;2023-02-13T13:27:02;6.10;;;1.90;;
13731;SDS011;6937;56.096;12.664;2023-02-13T13:29:31;4.50;;;1.60;;
13731;SDS011;6937;56.096;12.664;2023-02-13T13:32:10;5.60;;;1.90;;
13731;SDS011;6937;56.096;12.664;2023-02-13T13:34:42;6.18;;;1.58;;
13731;SDS011;6937;56.096;12.664;2023-02-13T13:39:59;3.03;;;1.30;;
13731;SDS011;6937;56.096;12.664;2023-02-13T13:42:33;6.60;;;1.77;;
13731;SDS011;6937;56.096;12.664;2023-02-13T13:48:28;5.75;;;1.75;;
13731;SDS011;6937;56.096;12.664;2023-02-13T13:50:55;5.50;;;1.75;;
13731;SDS011;6937;56.096;12.664;2023-02-13T13:53:21;7.57;;;1.88;;
13731;SDS011;6937;56.096;12.664;2023-02-13T13:58:36;4.70;;;1.70;;
13731;SDS011;6937;56.096;12.664;2023-02-13T14:03:50;4.85;;;1.48;;
13731;SDS011;6937;56.096;12.664;2023-02-13T14:06:18;4.95;;;1.67;;
13731;SDS011;6937;56.096;12.664;2023-02-13T14:13:56;5.88;;;1.63;;
13731;SDS011;6937;56.096;12.664;2023-02-13T14:16:38;5.78;;;1.70;;
13731;SDS011;6937;56.096;12.664;2023-02-13T14:19:06;4.32;;;1.98;;
13731;SDS011;6937;56.096;12.664;2023-02-13T14:21:50;5.72;;;1.60;;
13731;SDS011;6937;56.096;12.664;2023-02-13T14:24:15;6.32;;;1.75;;
13731;SDS011;6937;56.096;12.664;2023-02-13T14:26:48;6.72;;;1.73;;
13731;SDS011;6937;56.096;12.664;2023-02-13T14:29:21;6.47;;;1.60;;
13731;SDS011;6937;56.096;12.664;2023-02-13T14:32:00;4.85;;;1.52;;
13731;SDS011;6937;56.096;12.664;2023-02-13T14:34:30;7.05;;;2.05;;
13731;SDS011;6937;56.096;12.664;2023-02-13T14:37:01;7.30;;;2.00;;
13731;SDS011;6937;56.096;12.664;2023-02-13T14:40:08;9.35;;;2.00;;
13731;SDS011;6937;56.096;12.664;2023-02-13T14:42:35;6.82;;;1.75;;
13731;SDS011;6937;56.096;12.664;2023-02-13T14:45:04;6.38;;;1.70;;
13731;SDS011;6937;56.096;12.664;2023-02-13T14:47:41;4.85;;;1.80;;
13731;SDS011;6937;56.096;12.664;2023-02-13T14:50:14;5.88;;;1.90;;
13731;SDS011;6937;56.096;12.664;2023-02-13T14:52:45;5.05;;;1.65;;
13731;SDS011;6937;56.096;12.664;2023-02-13T14:55:13;7.40;;;1.58;;
13731;SDS011;6937;56.096;12.664;2023-02-13T14:57:46;5.82;;;1.98;;
13731;SDS011;6937;56.096;12.664;2023-02-13T15:02:55;9.80;;;1.88;;
13731;SDS011;6937;56.096;12.664;2023-02-13T15:05:29;7.72;;;2.15;;
13731;SDS011;6937;56.096;12.664;2023-02-13T15:08:13;5.47;;;1.60;;
13731;SDS011;6937;56.096;12.664;2023-02-13T15:10:45;7.65;;;1.67;;
13731;SDS011;6937;56.096;12.664;2023-02-13T15:13:25;6.03;;;1.55;;
13731;SDS011;6937;56.096;12.664;2023-02-13T15:16:09;5.63;;;1.70;;
13731;SDS011;6937;56.096;12.664;2023-02-13T15:18:49;4.88;;;1.63;;
13731;SDS011;6937;56.096;12.664;2023-02-13T15:21:20;6.25;;;1.75;;
13731;SDS011;6937;56.096;12.664;2023-02-13T15:23:49;7.15;;;1.80;;
13731;SDS011;6937;56.096;12.664;2023-02-13T15:26:19;6.88;;;1.98;;
13731;SDS011;6937;56.096;12.664;2023-02-13T15:29:01;3.72;;;1.63;;
13731;SDS011;6937;56.096;12.664;2023-02-13T15:31:30;9.23;;;2.10;;
13731;SDS011;6937;56.096;12.664;2023-02-13T15:33:57;6.78;;;1.70;;
13731;SDS011;6937;56.096;12.664;2023-02-13T15:36:26;4.43;;;1.20;;
13731;SDS011;6937;56.096;12.664;2023-02-13T15:39:00;6.10;;;1.58;;
13731;SDS011;6937;56.096;12.664;2023-02-13T15:41:31;6.97;;;1.60;;
13731;SDS011;6937;56.096;12.664;2023-02-13T15:43:59;5.18;;;1.65;;
13731;SDS011;6937;56.096;12.664;2023-02-13T15:46:26;8.60;;;2.00;;
13731;SDS011;6937;56.096;12.664;2023-02-13T15:48:54;4.28;;;1.52;;
13731;SDS011;6937;56.096;12.664;2023-02-13T15:51:23;5.95;;;2.00;;
13731;SDS011;6937;56.096;12.664;2023-02-13T15:56:21;5.38;;;1.38;;
13731;SDS011;6937;56.096;12.664;2023-02-13T15:58:47;5.75;;;1.52;;
13731;SDS011;6937;56.096;12.664;2023-02-13T16:01:14;7.88;;;1.77;;
13731;SDS011;6937;56.096;12.664;2023-02-13T16:03:42;7.35;;;1.77;;
13731;SDS011;6937;56.096;12.664;2023-02-13T16:06:13;8.02;;;1.48;;
13731;SDS011;6937;56.096;12.664;2023-02-13T16:08:44;8.07;;;2.00;;
13731;SDS011;6937;56.096;12.664;2023-02-13T16:13:57;6.80;;;1.80;;
13731;SDS011;6937;56.096;12.664;2023-02-13T16:16:30;8.95;;;1.85;;
13731;SDS011;6937;56.096;12.664;2023-02-13T16:19:00;8.02;;;2.05;;
13731;SDS011;6937;56.096;12.664;2023-02-13T16:21:26;7.38;;;1.90;;
13731;SDS011;6937;56.096;12.664;2023-02-13T16:23:59;5.55;;;1.30;;
13731;SDS011;6937;56.096;12.664;2023-02-13T16:26:29;7.72;;;1.65;;
13731;SDS011;6937;56.096;12.664;2023-02-13T16:28:55;7.07;;;1.92;;
13731;SDS011;6937;56.096;12.664;2023-02-13T16:31:21;8.77;;;1.88;;
13731;SDS011;6937;56.096;12.664;2023-02-13T16:33:47;6.90;;;1.67;;
13731;SDS011;6937;56.096;12.664;2023-02-13T16:38:39;6.63;;;1.88;;
13731;SDS011;6937;56.096;12.664;2023-02-13T16:43:49;5.35;;;1.80;;
13731;SDS011;6937;56.096;12.664;2023-02-13T16:54:37;5.88;;;1.60;;
13731;SDS011;6937;56.096;12.664;2023-02-13T17:04:27;5.60;;;1.45;;
13731;SDS011;6937;56.096;12.664;2023-02-13T17:06:53;7.20;;;2.17;;
13731;SDS011;6937;56.096;12.664;2023-02-13T17:09:19;6.18;;;1.63;;
13731;SDS011;6937;56.096;12.664;2023-02-13T17:11:45;6.18;;;1.55;;
13731;SDS011;6937;56.096;12.664;2023-02-13T17:14:14;6.88;;;1.67;;
13731;SDS011;6937;56.096;12.664;2023-02-13T17:16:40;8.70;;;1.95;;
13731;SDS011;6937;56.096;12.664;2023-02-13T17:19:05;9.00;;;1.50;;
13731;SDS011;6937;56.096;12.664;2023-02-13T17:21:31;8.60;;;1.48;;
13731;SDS011;6937;56.096;12.664;2023-02-13T17:23:56;7.33;;;1.73;;
13731;SDS011;6937;56.096;12.664;2023-02-13T17:26:22;9.02;;;1.75;;
13731;SDS011;6937;56.096;12.664;2023-02-13T17:28:47;8.77;;;1.60;;
13731;SDS011;6937;56.096;12.664;2023-02-13T17:31:12;5.07;;;1.60;;
13731;SDS011;6937;56.096;12.664;2023-02-13T17:33:38;6.28;;;1.80;;
13731;SDS011;6937;56.096;12.664;2023-02-13T17:36:05;6.65;;;1.70;;
13731;SDS011;6937;56.096;12.664;2023-02-13T17:38:31;6.65;;;1.33;;